Time,TemperatureF,DewpointF,PressureIn,WindDirection,WindDirectionDegrees,WindSpeedMPH,WindSpeedGustMPH,Humidity,HourlyPrecipIn,Conditions,Clouds,dailyrainin,SoftwareType,DateUTC
2013-05-01 00:12:00,25.5,20.0,29.87,ENE,63,0.0,8.0,79,0.00,,,0.00,weatherlink.com 1.10,2013-05-01 08:12:00,
2013-05-01 00:27:00,25.5,19.0,29.87,SE,125,0.0,4.0,76,0.00,,,0.00,weatherlink.com 1.10,2013-05-01 08:27:00,
2013-05-01 00:42:00,25.4,19.0,29.87,East,101,2.0,4.0,77,0.00,,,0.00,weatherlink.com 1.10,2013-05-01 08:42:00,
2013-05-01 00:57:00,25.3,19.0,29.87,ESE,117,0.0,6.0,77,0.00,,,0.00,weatherlink.com 1.10,2013-05-01 08:57:00,
2013-05-01 01:12:00,25.2,19.0,29.87,ENE,72,1.0,4.0,77,0.00,,,0.00,weatherlink.com 1.10,2013-05-01 09:12:00,
2013-05-01 01:27:00,25.1,19.0,29.87,ESE,118,1.0,3.0,77,0.00,,,0.00,weatherlink.com 1.10,2013-05-01 09:27:00,
2013-05-01 01:42:00,25.3,19.0,29.86,East,86,2.0,7.0,78,0.00,,,0.00,weatherlink.com 1.10,2013-05-01 09:42:00,
2013-05-01 01:57:00,25.1,19.0,29.86,East,79,1.0,5.0,79,0.00,,,0.00,weatherlink.com 1.10,2013-05-01 09:57:00,
2013-05-01 02:13:00,24.8,20.0,29.86,NW,319,2.0,4.0,82,0.00,,,0.00,weatherlink.com 1.10,2013-05-01 10:13:00,
2013-05-01 02:27:00,24.8,20.0,29.86,East,94,0.0,3.0,82,0.00,,,0.00,weatherlink.com 1.10,2013-05-01 10:27:00,
2013-05-01 02:42:00,24.5,20.0,29.85,East,82,5.0,6.0,83,0.00,,,0.00,weatherlink.com 1.10,2013-05-01 10:42:00,
2013-05-01 02:57:00,24.3,20.0,29.85,ESE,118,0.0,2.0,83,0.00,,,0.00,weatherlink.com 1.10,2013-05-01 10:57:00,
2013-05-01 03:12:00,24.3,20.0,29.84,NE,36,0.0,3.0,82,0.00,,,0.00,weatherlink.com 1.10,2013-05-01 11:12:00,
2013-05-01 03:27:00,24.4,19.0,29.84,East,92,1.0,5.0,80,0.00,,,0.00,weatherlink.com 1.10,2013-05-01 11:27:00,
2013-05-01 03:42:00,24.4,19.0,29.83,NW,313,5.0,9.0,79,0.00,,,0.00,weatherlink.com 1.10,2013-05-01 11:42:00,
2013-05-01 03:57:00,24.6,19.0,29.83,SSW,197,1.0,2.0,79,0.00,,,0.00,weatherlink.com 1.10,2013-05-01 11:57:00,
2013-05-01 04:12:00,24.7,19.0,29.83,WSW,255,0.0,4.0,80,0.00,,,0.00,weatherlink.com 1.10,2013-05-01 12:12:00,
2013-05-01 04:27:00,24.7,20.0,29.82,SSW,204,0.0,2.0,81,0.00,,,0.00,weatherlink.com 1.10,2013-05-01 12:27:00,
2013-05-01 04:42:00,24.9,20.0,29.82,East,89,0.0,5.0,80,0.00,,,0.00,weatherlink.com 1.10,2013-05-01 12:42:00,
2013-05-01 04:57:00,25.1,20.0,29.81,ESE,108,2.0,4.0,82,0.00,,,0.00,weatherlink.com 1.10,2013-05-01 12:57:00,
2013-05-01 05:12:00,24.8,20.0,29.81,ENE,72,1.0,3.0,83,0.00,,,0.00,weatherlink.com 1.10,2013-05-01 13:12:00,
2013-05-01 05:27:00,24.5,20.0,29.81,NW,310,0.0,3.0,83,0.00,,,0.00,weatherlink.com 1.10,2013-05-01 13:27:00,
2013-05-01 05:42:00,24.4,20.0,29.80,ENE,66,0.0,3.0,83,0.00,,,0.00,weatherlink.com 1.10,2013-05-01 13:42:00,
2013-05-01 05:57:00,24.6,20.0,29.79,SE,127,2.0,2.0,81,0.00,,,0.00,weatherlink.com 1.10,2013-05-01 13:57:00,
2013-05-01 06:12:00,24.7,20.0,29.79,West,281,1.0,4.0,81,0.00,,,0.00,weatherlink.com 1.10,2013-05-01 14:12:00,
2013-05-01 06:27:00,24.6,20.0,29.79,SE,126,1.0,4.0,81,0.00,,,0.00,weatherlink.com 1.10,2013-05-01 14:27:00,
2013-05-01 06:42:00,24.5,20.0,29.79,East,81,0.0,5.0,82,0.00,,,0.00,weatherlink.com 1.10,2013-05-01 14:42:00,
2013-05-01 06:57:00,24.4,20.0,29.78,East,97,1.0,4.0,82,0.00,,,0.00,weatherlink.com 1.10,2013-05-01 14:57:00,
2013-05-01 07:12:00,24.7,20.0,29.78,WNW,296,0.0,5.0,81,0.00,,,0.00,weatherlink.com 1.10,2013-05-01 15:12:00,
2013-05-01 07:27:00,24.9,20.0,29.78,ESE,105,0.0,3.0,80,0.00,,,0.00,weatherlink.com 1.10,2013-05-01 15:27:00,
2013-05-01 07:42:00,25.1,20.0,29.78,SE,126,0.0,5.0,80,0.00,,,0.00,weatherlink.com 1.10,2013-05-01 15:42:00,
2013-05-01 07:57:00,24.9,20.0,29.77,East,94,0.0,7.0,81,0.00,,,0.00,weatherlink.com 1.10,2013-05-01 15:57:00,
2013-05-01 08:13:00,25.3,20.0,29.77,West,274,0.0,5.0,80,0.00,,,0.00,weatherlink.com 1.10,2013-05-01 16:13:00,
2013-05-01 08:28:00,25.7,20.0,29.77,WNW,295,0.0,5.0,78,0.00,,,0.00,weatherlink.com 1.10,2013-05-01 16:28:00,
2013-05-01 08:43:00,26.3,20.0,29.77,ENE,77,3.0,4.0,78,0.00,,,0.00,weatherlink.com 1.10,2013-05-01 16:43:00,
2013-05-01 08:58:00,26.4,20.0,29.76,East,101,0.0,6.0,77,0.00,,,0.00,weatherlink.com 1.10,2013-05-01 16:58:00,
2013-05-01 09:13:00,27.0,20.0,29.76,ENE,58,1.0,5.0,75,0.00,,,0.00,weatherlink.com 1.10,2013-05-01 17:13:00,
2013-05-01 09:28:00,27.0,20.0,29.75,SE,124,2.0,7.0,75,0.00,,,0.00,weatherlink.com 1.10,2013-05-01 17:28:00,
2013-05-01 09:43:00,27.6,21.0,29.75,ESE,106,1.0,6.0,75,0.00,,,0.00,weatherlink.com 1.10,2013-05-01 17:43:00,
2013-05-01 09:58:00,28.0,20.0,29.75,NW,314,2.0,7.0,73,0.00,,,0.00,weatherlink.com 1.10,2013-05-01 17:58:00,
2013-05-01 10:13:00,29.0,21.0,29.75,NW,307,0.0,5.0,72,0.00,,,0.00,weatherlink.com 1.10,2013-05-01 18:13:00,
2013-05-01 10:28:00,30.0,22.0,29.75,NW,320,0.0,8.0,71,0.00,,,0.00,weatherlink.com 1.10,2013-05-01 18:28:00,
2013-05-01 10:43:00,29.8,21.0,29.75,ENE,75,1.0,9.0,69,0.00,,,0.00,weatherlink.com 1.10,2013-05-01 18:43:00,
2013-05-01 10:58:00,30.4,22.0,29.75,East,84,1.0,7.0,71,0.00,,,0.00,weatherlink.com 1.10,2013-05-01 18:58:00,
2013-05-01 11:13:00,31.3,22.0,29.74,East,94,1.0,6.0,68,0.00,,,0.00,weatherlink.com 1.10,2013-05-01 19:13:00,
2013-05-01 11:28:00,32.1,23.0,29.74,East,94,2.0,4.0,68,0.00,,,0.00,weatherlink.com 1.10,2013-05-01 19:28:00,
2013-05-01 11:43:00,32.3,22.0,29.74,NNE,27,0.0,9.0,66,0.00,,,0.00,weatherlink.com 1.10,2013-05-01 19:43:00,
2013-05-01 11:58:00,32.8,22.0,29.73,East,101,3.0,6.0,64,0.00,,,0.00,weatherlink.com 1.10,2013-05-01 19:58:00,
2013-05-01 12:13:00,32.7,22.0,29.73,ESE,109,1.0,6.0,64,0.00,,,0.00,weatherlink.com 1.10,2013-05-01 20:13:00,
2013-05-01 12:28:00,33.1,22.0,29.73,SE,146,0.0,4.0,63,0.00,,,0.00,weatherlink.com 1.10,2013-05-01 20:28:00,
2013-05-01 12:43:00,34.1,23.0,29.73,North,353,2.0,2.0,63,0.00,,,0.00,weatherlink.com 1.10,2013-05-01 20:43:00,
2013-05-01 12:58:00,33.9,22.0,29.73,NW,306,1.0,6.0,62,0.00,,,0.00,weatherlink.com 1.10,2013-05-01 20:58:00,
2013-05-01 13:13:00,34.4,22.0,29.72,NW,308,0.0,5.0,61,0.00,,,0.00,weatherlink.com 1.10,2013-05-01 21:13:00,
2013-05-01 13:28:00,36.9,24.0,29.72,SE,126,1.0,3.0,59,0.00,,,0.00,weatherlink.com 1.10,2013-05-01 21:28:00,
2013-05-01 13:43:00,37.1,22.0,29.71,WNW,285,2.0,4.0,55,0.01,,,0.01,weatherlink.com 1.10,2013-05-01 21:43:00,
2013-05-01 13:58:00,36.0,22.0,29.71,NW,305,1.0,2.0,56,0.02,,,0.02,weatherlink.com 1.10,2013-05-01 21:58:00,
2013-05-01 14:13:00,36.4,21.0,29.71,NNW,328,0.0,5.0,55,0.03,,,0.03,weatherlink.com 1.10,2013-05-01 22:13:00,
2013-05-01 14:28:00,36.7,21.0,29.71,East,101,0.0,2.0,53,0.04,,,0.04,weatherlink.com 1.10,2013-05-01 22:28:00,
2013-05-01 14:43:00,36.7,23.0,29.70,ESE,110,1.0,3.0,57,0.03,,,0.04,weatherlink.com 1.10,2013-05-01 22:43:00,
2013-05-01 14:58:00,38.5,22.0,29.70,North,352,0.0,5.0,51,0.03,,,0.05,weatherlink.com 1.10,2013-05-01 22:58:00,
2013-05-01 15:14:00,38.9,22.0,29.70,West,273,0.0,5.0,51,0.03,,,0.06,weatherlink.com 1.10,2013-05-01 23:14:00,
2013-05-01 15:29:00,39.2,22.0,29.69,NE,41,3.0,4.0,50,0.02,,,0.06,weatherlink.com 1.10,2013-05-01 23:29:00,
2013-05-01 15:44:00,38.0,20.0,29.69,West,269,2.0,7.0,49,0.03,,,0.07,weatherlink.com 1.10,2013-05-01 23:44:00,
2013-05-01 15:59:00,37.9,21.0,29.68,East,98,1.0,4.0,51,0.02,,,0.07,weatherlink.com 1.10,2013-05-01 23:59:00,
2013-05-01 16:14:00,37.4,20.0,29.68,West,262,0.0,6.0,50,0.01,,,0.07,weatherlink.com 1.10,2013-05-02 00:14:00,
2013-05-01 16:29:00,38.1,21.0,29.68,ESE,115,0.0,5.0,50,0.02,,,0.08,weatherlink.com 1.10,2013-05-02 00:29:00,
2013-05-01 16:59:00,38.9,21.0,29.67,NW,314,1.0,4.0,48,0.01,,,0.08,weatherlink.com 1.10,2013-05-02 00:59:00,
2013-05-01 17:14:00,38.7,20.0,29.67,East,101,0.0,3.0,48,0.01,,,0.08,weatherlink.com 1.10,2013-05-02 01:14:00,
2013-05-01 17:29:00,37.2,18.0,29.67,East,92,1.0,5.0,47,0.01,,,0.09,weatherlink.com 1.10,2013-05-02 01:29:00,
2013-05-01 17:44:00,36.3,18.0,29.67,NNW,344,0.0,5.0,48,0.01,,,0.09,weatherlink.com 1.10,2013-05-02 01:44:00,
2013-05-01 17:59:00,36.3,19.0,29.67,NW,308,0.0,5.0,50,0.01,,,0.09,weatherlink.com 1.10,2013-05-02 01:59:00,
2013-05-01 18:14:00,35.4,18.0,29.67,NW,305,3.0,5.0,49,0.01,,,0.09,weatherlink.com 1.10,2013-05-02 02:14:00,
2013-05-01 18:29:00,34.3,16.0,29.67,WSW,249,0.0,7.0,48,0.00,,,0.09,weatherlink.com 1.10,2013-05-02 02:29:00,
2013-05-01 18:59:00,33.4,17.0,29.67,NNW,328,3.0,7.0,52,0.00,,,0.09,weatherlink.com 1.10,2013-05-02 02:59:00,
2013-05-01 19:14:00,33.0,17.0,29.67,ENE,74,0.0,6.0,52,0.00,,,0.09,weatherlink.com 1.10,2013-05-02 03:14:00,
2013-05-01 19:29:00,32.6,16.0,29.67,WNW,295,1.0,4.0,50,0.00,,,0.09,weatherlink.com 1.10,2013-05-02 03:29:00,
2013-05-01 19:44:00,32.4,16.0,29.67,WNW,290,0.0,3.0,51,0.00,,,0.09,weatherlink.com 1.10,2013-05-02 03:44:00,
2013-05-01 19:59:00,32.0,15.0,29.67,NW,307,0.0,4.0,49,0.00,,,0.09,weatherlink.com 1.10,2013-05-02 03:59:00,
2013-05-01 20:14:00,31.8,16.0,29.67,NW,307,0.0,1.0,52,0.00,,,0.09,weatherlink.com 1.10,2013-05-02 04:14:00,
2013-05-01 20:29:00,31.0,15.0,29.67,ENE,72,0.0,3.0,51,0.00,,,0.09,weatherlink.com 1.10,2013-05-02 04:29:00,
2013-05-01 20:44:00,30.4,14.0,29.67,WNW,300,1.0,3.0,51,0.00,,,0.09,weatherlink.com 1.10,2013-05-02 04:44:00,
2013-05-01 20:59:00,29.9,15.0,29.68,East,92,1.0,2.0,53,0.00,,,0.09,weatherlink.com 1.10,2013-05-02 04:59:00,
2013-05-01 21:14:00,29.2,14.0,29.68,ENE,76,0.0,3.0,53,0.00,,,0.09,weatherlink.com 1.10,2013-05-02 05:14:00,
2013-05-01 21:29:00,28.5,14.0,29.69,ENE,66,0.0,5.0,56,0.00,,,0.09,weatherlink.com 1.10,2013-05-02 05:29:00,
2013-05-01 21:44:00,27.6,13.0,29.69,WNW,284,0.0,2.0,54,0.00,,,0.09,weatherlink.com 1.10,2013-05-02 05:44:00,
2013-05-01 21:59:00,27.0,13.0,29.70,ESE,105,0.0,1.0,55,0.00,,,0.09,weatherlink.com 1.10,2013-05-02 05:59:00,
2013-05-01 22:14:00,26.4,13.0,29.70,ESE,106,0.0,2.0,56,0.00,,,0.09,weatherlink.com 1.10,2013-05-02 06:14:00,
2013-05-01 22:29:00,25.8,12.0,29.70,ESE,106,0.0,1.0,56,0.00,,,0.09,weatherlink.com 1.10,2013-05-02 06:29:00,
2013-05-01 22:44:00,25.1,12.0,29.71,South,169,0.0,1.0,58,0.00,,,0.09,weatherlink.com 1.10,2013-05-02 06:44:00,
2013-05-01 22:59:00,24.5,13.0,29.71,East,93,0.0,0.0,61,0.00,,,0.09,weatherlink.com 1.10,2013-05-02 06:59:00,
2013-05-01 23:15:00,23.9,12.0,29.71,ESE,107,0.0,1.0,62,0.00,,,0.09,weatherlink.com 1.10,2013-05-02 07:15:00,
2013-05-01 23:30:00,23.4,12.0,29.72,North,8,0.0,1.0,63,0.00,,,0.09,weatherlink.com 1.10,2013-05-02 07:30:00,
2013-05-01 23:45:00,23.3,13.0,29.72,North,8,0.0,1.0,64,0.00,,,0.09,weatherlink.com 1.10,2013-05-02 07:45:00,